sensor_id;sensor_type;location;lat;lon;timestamp;P1;durP1;ratioP1;P2;durP2;ratioP2
52067;SDS011;60237;52.338;21.228;2022-08-19T00:01:57;48.08;;;20.85;;
52067;SDS011;60237;52.338;21.228;2022-08-19T00:04:26;47.58;;;19.85;;
52067;SDS011;60237;52.338;21.228;2022-08-19T00:06:53;32.42;;;18.08;;
52067;SDS011;60237;52.338;21.228;2022-08-19T00:09:20;51.28;;;19.55;;
52067;SDS011;60237;52.338;21.228;2022-08-19T00:11:47;43.45;;;19.00;;
52067;SDS011;60237;52.338;21.228;2022-08-19T00:14:15;40.47;;;18.77;;
52067;SDS011;60237;52.338;21.228;2022-08-19T00:16:42;55.40;;;19.05;;
52067;SDS011;60237;52.338;21.228;2022-08-19T00:19:10;32.30;;;17.80;;
52067;SDS011;60237;52.338;21.228;2022-08-19T00:21:37;34.80;;;18.00;;
52067;SDS011;60237;52.338;21.228;2022-08-19T00:24:09;45.97;;;18.80;;
52067;SDS011;60237;52.338;21.228;2022-08-19T00:26:36;37.15;;;17.80;;
52067;SDS011;60237;52.338;21.228;2022-08-19T00:29:03;36.88;;;18.60;;
52067;SDS011;60237;52.338;21.228;2022-08-19T00:31:30;40.00;;;18.10;;
52067;SDS011;60237;52.338;21.228;2022-08-19T00:33:57;38.05;;;16.83;;
52067;SDS011;60237;52.338;21.228;2022-08-19T00:36:24;37.53;;;17.73;;
52067;SDS011;60237;52.338;21.228;2022-08-19T00:38:51;33.05;;;17.35;;
52067;SDS011;60237;52.338;21.228;2022-08-19T00:41:19;48.05;;;23.02;;
52067;SDS011;60237;52.338;21.228;2022-08-19T00:46:43;69.07;;;35.75;;
52067;SDS011;60237;52.338;21.228;2022-08-19T00:49:27;81.85;;;40.00;;
52067;SDS011;60237;52.338;21.228;2022-08-19T00:52:04;78.32;;;42.00;;
52067;SDS011;60237;52.338;21.228;2022-08-19T00:54:31;113.43;;;55.70;;
52067;SDS011;60237;52.338;21.228;2022-08-19T00:56:58;110.65;;;57.75;;
52067;SDS011;60237;52.338;21.228;2022-08-19T00:59:25;105.15;;;52.25;;
52067;SDS011;60237;52.338;21.228;2022-08-19T01:02:14;74.63;;;42.80;;
52067;SDS011;60237;52.338;21.228;2022-08-19T01:04:41;87.65;;;45.00;;
52067;SDS011;60237;52.338;21.228;2022-08-19T01:07:08;95.00;;;41.70;;
52067;SDS011;60237;52.338;21.228;2022-08-19T01:09:40;72.10;;;39.13;;
52067;SDS011;60237;52.338;21.228;2022-08-19T01:12:06;63.25;;;35.28;;
52067;SDS011;60237;52.338;21.228;2022-08-19T01:14:33;60.50;;;28.83;;
52067;SDS011;60237;52.338;21.228;2022-08-19T01:17:01;53.45;;;24.40;;
52067;SDS011;60237;52.338;21.228;2022-08-19T01:19:29;51.83;;;25.88;;
52067;SDS011;60237;52.338;21.228;2022-08-19T01:27:15;33.17;;;19.40;;
52067;SDS011;60237;52.338;21.228;2022-08-19T01:29:42;31.63;;;20.02;;
52067;SDS011;60237;52.338;21.228;2022-08-19T01:32:11;45.90;;;18.92;;
52067;SDS011;60237;52.338;21.228;2022-08-19T01:34:58;35.90;;;18.77;;
52067;SDS011;60237;52.338;21.228;2022-08-19T01:37:24;40.25;;;18.48;;
52067;SDS011;60237;52.338;21.228;2022-08-19T01:39:52;48.45;;;19.35;;
52067;SDS011;60237;52.338;21.228;2022-08-19T01:42:19;37.20;;;18.67;;
52067;SDS011;60237;52.338;21.228;2022-08-19T01:44:55;50.80;;;18.65;;
52067;SDS011;60237;52.338;21.228;2022-08-19T01:47:22;47.20;;;18.92;;
52067;SDS011;60237;52.338;21.228;2022-08-19T01:49:48;28.05;;;17.35;;
52067;SDS011;60237;52.338;21.228;2022-08-19T01:52:15;44.17;;;19.73;;
52067;SDS011;60237;52.338;21.228;2022-08-19T01:54:41;47.55;;;19.77;;
52067;SDS011;60237;52.338;21.228;2022-08-19T01:57:09;37.75;;;18.05;;
52067;SDS011;60237;52.338;21.228;2022-08-19T01:59:37;39.03;;;18.45;;
52067;SDS011;60237;52.338;21.228;2022-08-19T02:02:03;30.27;;;17.00;;
52067;SDS011;60237;52.338;21.228;2022-08-19T02:04:32;32.78;;;17.17;;
52067;SDS011;60237;52.338;21.228;2022-08-19T02:06:58;51.60;;;19.02;;
52067;SDS011;60237;52.338;21.228;2022-08-19T02:09:25;23.48;;;15.95;;
52067;SDS011;60237;52.338;21.228;2022-08-19T02:11:51;42.55;;;17.88;;
52067;SDS011;60237;52.338;21.228;2022-08-19T02:14:19;41.45;;;17.60;;
52067;SDS011;60237;52.338;21.228;2022-08-19T02:16:46;67.85;;;19.85;;
52067;SDS011;60237;52.338;21.228;2022-08-19T02:19:12;44.22;;;17.38;;
52067;SDS011;60237;52.338;21.228;2022-08-19T02:21:39;36.80;;;17.33;;
52067;SDS011;60237;52.338;21.228;2022-08-19T02:24:05;25.35;;;15.45;;
52067;SDS011;60237;52.338;21.228;2022-08-19T02:26:32;28.85;;;16.23;;
52067;SDS011;60237;52.338;21.228;2022-08-19T02:28:59;41.65;;;16.75;;
52067;SDS011;60237;52.338;21.228;2022-08-19T02:31:26;45.58;;;17.17;;
52067;SDS011;60237;52.338;21.228;2022-08-19T02:33:54;28.77;;;15.38;;
52067;SDS011;60237;52.338;21.228;2022-08-19T02:36:22;46.40;;;17.75;;
52067;SDS011;60237;52.338;21.228;2022-08-19T02:38:50;25.25;;;16.02;;
52067;SDS011;60237;52.338;21.228;2022-08-19T02:41:25;29.15;;;15.57;;
52067;SDS011;60237;52.338;21.228;2022-08-19T02:43:53;54.50;;;18.55;;
52067;SDS011;60237;52.338;21.228;2022-08-19T02:46:40;26.48;;;15.63;;
52067;SDS011;60237;52.338;21.228;2022-08-19T02:49:06;59.92;;;18.33;;
52067;SDS011;60237;52.338;21.228;2022-08-19T02:51:35;50.15;;;18.25;;
52067;SDS011;60237;52.338;21.228;2022-08-19T02:54:02;34.25;;;16.48;;
52067;SDS011;60237;52.338;21.228;2022-08-19T02:56:28;44.15;;;16.27;;
52067;SDS011;60237;52.338;21.228;2022-08-19T02:58:55;33.75;;;15.82;;
52067;SDS011;60237;52.338;21.228;2022-08-19T03:01:23;42.83;;;16.63;;
52067;SDS011;60237;52.338;21.228;2022-08-19T03:03:50;47.30;;;16.48;;
52067;SDS011;60237;52.338;21.228;2022-08-19T03:06:17;26.80;;;15.38;;
52067;SDS011;60237;52.338;21.228;2022-08-19T03:08:45;25.83;;;16.33;;
52067;SDS011;60237;52.338;21.228;2022-08-19T03:11:20;43.15;;;17.63;;
52067;SDS011;60237;52.338;21.228;2022-08-19T03:13:47;33.17;;;16.50;;
52067;SDS011;60237;52.338;21.228;2022-08-19T03:16:15;45.70;;;17.63;;
52067;SDS011;60237;52.338;21.228;2022-08-19T03:18:42;43.75;;;17.25;;
52067;SDS011;60237;52.338;21.228;2022-08-19T03:21:09;32.67;;;16.58;;
52067;SDS011;60237;52.338;21.228;2022-08-19T03:23:38;33.63;;;16.52;;
52067;SDS011;60237;52.338;21.228;2022-08-19T03:26:05;46.38;;;17.25;;
52067;SDS011;60237;52.338;21.228;2022-08-19T03:28:43;36.50;;;16.95;;
52067;SDS011;60237;52.338;21.228;2022-08-19T03:31:18;57.50;;;18.33;;
52067;SDS011;60237;52.338;21.228;2022-08-19T03:34:05;45.75;;;17.42;;
52067;SDS011;60237;52.338;21.228;2022-08-19T03:36:33;49.55;;;18.35;;
52067;SDS011;60237;52.338;21.228;2022-08-19T03:39:00;36.53;;;17.08;;
52067;SDS011;60237;52.338;21.228;2022-08-19T03:41:27;37.75;;;17.10;;
52067;SDS011;60237;52.338;21.228;2022-08-19T03:44:15;26.33;;;16.52;;
52067;SDS011;60237;52.338;21.228;2022-08-19T03:46:44;43.50;;;17.20;;
52067;SDS011;60237;52.338;21.228;2022-08-19T03:49:11;47.88;;;18.98;;
52067;SDS011;60237;52.338;21.228;2022-08-19T03:51:40;32.47;;;16.67;;
52067;SDS011;60237;52.338;21.228;2022-08-19T03:54:08;47.50;;;17.70;;
52067;SDS011;60237;52.338;21.228;2022-08-19T03:56:35;37.15;;;15.77;;
52067;SDS011;60237;52.338;21.228;2022-08-19T03:59:02;40.30;;;16.08;;
52067;SDS011;60237;52.338;21.228;2022-08-19T04:01:29;40.20;;;16.98;;
52067;SDS011;60237;52.338;21.228;2022-08-19T04:04:01;30.15;;;14.80;;
52067;SDS011;60237;52.338;21.228;2022-08-19T04:06:29;32.05;;;15.23;;
52067;SDS011;60237;52.338;21.228;2022-08-19T04:08:57;40.95;;;15.35;;
52067;SDS011;60237;52.338;21.228;2022-08-19T04:11:25;29.27;;;15.65;;
52067;SDS011;60237;52.338;21.228;2022-08-19T04:14:10;35.10;;;15.25;;
52067;SDS011;60237;52.338;21.228;2022-08-19T04:16:37;28.00;;;14.68;;
52067;SDS011;60237;52.338;21.228;2022-08-19T04:19:04;36.67;;;13.77;;
52067;SDS011;60237;52.338;21.228;2022-08-19T04:21:31;41.05;;;15.38;;
52067;SDS011;60237;52.338;21.228;2022-08-19T04:23:58;41.55;;;14.43;;
52067;SDS011;60237;52.338;21.228;2022-08-19T04:26:26;34.00;;;13.48;;
52067;SDS011;60237;52.338;21.228;2022-08-19T04:28:53;43.92;;;14.13;;
52067;SDS011;60237;52.338;21.228;2022-08-19T04:31:22;35.88;;;14.73;;
52067;SDS011;60237;52.338;21.228;2022-08-19T04:33:49;39.03;;;14.45;;
52067;SDS011;60237;52.338;21.228;2022-08-19T04:36:20;42.70;;;14.32;;
52067;SDS011;60237;52.338;21.228;2022-08-19T04:38:47;34.85;;;13.32;;
52067;SDS011;60237;52.338;21.228;2022-08-19T04:41:15;66.15;;;15.07;;
52067;SDS011;60237;52.338;21.228;2022-08-19T04:44:00;29.08;;;11.73;;
52067;SDS011;60237;52.338;21.228;2022-08-19T04:46:30;34.42;;;12.85;;
52067;SDS011;60237;52.338;21.228;2022-08-19T04:49:17;42.22;;;12.65;;
52067;SDS011;60237;52.338;21.228;2022-08-19T04:51:44;42.67;;;13.07;;
52067;SDS011;60237;52.338;21.228;2022-08-19T04:54:11;40.28;;;13.77;;
52067;SDS011;60237;52.338;21.228;2022-08-19T04:56:39;44.88;;;11.63;;
52067;SDS011;60237;52.338;21.228;2022-08-19T04:59:06;29.52;;;11.50;;
52067;SDS011;60237;52.338;21.228;2022-08-19T05:01:34;226.60;;;25.58;;
52067;SDS011;60237;52.338;21.228;2022-08-19T05:04:04;59.58;;;12.45;;
52067;SDS011;60237;52.338;21.228;2022-08-19T05:06:32;46.90;;;11.88;;
52067;SDS011;60237;52.338;21.228;2022-08-19T05:09:02;47.35;;;12.60;;
52067;SDS011;60237;52.338;21.228;2022-08-19T05:11:33;43.35;;;11.07;;
52067;SDS011;60237;52.338;21.228;2022-08-19T05:13:59;39.28;;;9.60;;
52067;SDS011;60237;52.338;21.228;2022-08-19T05:16:26;67.30;;;12.88;;
52067;SDS011;60237;52.338;21.228;2022-08-19T05:18:53;24.83;;;9.60;;
52067;SDS011;60237;52.338;21.228;2022-08-19T05:21:39;39.65;;;9.73;;
52067;SDS011;60237;52.338;21.228;2022-08-19T05:24:24;39.10;;;11.00;;
52067;SDS011;60237;52.338;21.228;2022-08-19T05:26:53;51.30;;;10.77;;
52067;SDS011;60237;52.338;21.228;2022-08-19T05:29:23;24.92;;;8.57;;
52067;SDS011;60237;52.338;21.228;2022-08-19T05:31:51;28.77;;;9.18;;
52067;SDS011;60237;52.338;21.228;2022-08-19T05:34:18;46.08;;;10.30;;
52067;SDS011;60237;52.338;21.228;2022-08-19T05:36:48;29.38;;;9.75;;
52067;SDS011;60237;52.338;21.228;2022-08-19T05:39:19;31.10;;;9.02;;
52067;SDS011;60237;52.338;21.228;2022-08-19T05:41:47;29.80;;;9.05;;
52067;SDS011;60237;52.338;21.228;2022-08-19T05:44:15;25.85;;;8.63;;
52067;SDS011;60237;52.338;21.228;2022-08-19T05:46:43;565.17;;;48.85;;
52067;SDS011;60237;52.338;21.228;2022-08-19T05:49:13;130.15;;;19.17;;
52067;SDS011;60237;52.338;21.228;2022-08-19T05:51:40;35.05;;;9.98;;
52067;SDS011;60237;52.338;21.228;2022-08-19T05:54:07;85.65;;;14.38;;
52067;SDS011;60237;52.338;21.228;2022-08-19T05:56:35;230.68;;;21.80;;
52067;SDS011;60237;52.338;21.228;2022-08-19T05:59:05;80.43;;;11.98;;
52067;SDS011;60237;52.338;21.228;2022-08-19T06:01:35;47.58;;;10.65;;
52067;SDS011;60237;52.338;21.228;2022-08-19T06:04:02;33.95;;;10.13;;
52067;SDS011;60237;52.338;21.228;2022-08-19T06:06:29;59.50;;;10.32;;
52067;SDS011;60237;52.338;21.228;2022-08-19T06:08:56;49.25;;;11.50;;
52067;SDS011;60237;52.338;21.228;2022-08-19T06:11:34;24.13;;;8.90;;
52067;SDS011;60237;52.338;21.228;2022-08-19T06:14:05;26.80;;;9.23;;
52067;SDS011;60237;52.338;21.228;2022-08-19T06:16:42;18.13;;;8.60;;
52067;SDS011;60237;52.338;21.228;2022-08-19T06:19:12;28.45;;;9.40;;
52067;SDS011;60237;52.338;21.228;2022-08-19T06:21:40;41.33;;;10.07;;
52067;SDS011;60237;52.338;21.228;2022-08-19T06:24:07;21.48;;;8.55;;
52067;SDS011;60237;52.338;21.228;2022-08-19T06:26:35;27.90;;;7.93;;
52067;SDS011;60237;52.338;21.228;2022-08-19T06:29:03;36.30;;;9.82;;
52067;SDS011;60237;52.338;21.228;2022-08-19T06:31:30;30.88;;;8.73;;
52067;SDS011;60237;52.338;21.228;2022-08-19T06:34:00;33.53;;;9.65;;
52067;SDS011;60237;52.338;21.228;2022-08-19T06:36:30;35.55;;;10.02;;
52067;SDS011;60237;52.338;21.228;2022-08-19T06:39:04;29.05;;;8.95;;
52067;SDS011;60237;52.338;21.228;2022-08-19T06:41:34;41.25;;;10.30;;
52067;SDS011;60237;52.338;21.228;2022-08-19T06:44:07;27.55;;;8.07;;
52067;SDS011;60237;52.338;21.228;2022-08-19T06:46:39;34.55;;;9.45;;
52067;SDS011;60237;52.338;21.228;2022-08-19T06:49:07;97.43;;;12.93;;
52067;SDS011;60237;52.338;21.228;2022-08-19T06:51:43;23.42;;;8.45;;
52067;SDS011;60237;52.338;21.228;2022-08-19T06:54:10;32.03;;;8.95;;
52067;SDS011;60237;52.338;21.228;2022-08-19T06:56:45;27.73;;;8.70;;
52067;SDS011;60237;52.338;21.228;2022-08-19T06:59:21;31.90;;;8.27;;
52067;SDS011;60237;52.338;21.228;2022-08-19T07:01:49;19.95;;;8.10;;
52067;SDS011;60237;52.338;21.228;2022-08-19T07:04:18;51.03;;;9.65;;
52067;SDS011;60237;52.338;21.228;2022-08-19T07:06:45;31.38;;;9.10;;
52067;SDS011;60237;52.338;21.228;2022-08-19T07:09:20;20.05;;;8.25;;
52067;SDS011;60237;52.338;21.228;2022-08-19T07:11:48;43.67;;;9.73;;
52067;SDS011;60237;52.338;21.228;2022-08-19T07:14:16;42.15;;;10.10;;
52067;SDS011;60237;52.338;21.228;2022-08-19T07:16:46;30.20;;;8.75;;
52067;SDS011;60237;52.338;21.228;2022-08-19T07:19:13;46.85;;;9.68;;
52067;SDS011;60237;52.338;21.228;2022-08-19T07:21:41;27.20;;;9.00;;
52067;SDS011;60237;52.338;21.228;2022-08-19T07:24:07;32.40;;;7.90;;
52067;SDS011;60237;52.338;21.228;2022-08-19T07:26:37;30.75;;;8.55;;
52067;SDS011;60237;52.338;21.228;2022-08-19T07:29:07;13.05;;;6.80;;
52067;SDS011;60237;52.338;21.228;2022-08-19T07:31:34;29.02;;;8.25;;
52067;SDS011;60237;52.338;21.228;2022-08-19T07:34:07;47.40;;;9.45;;
52067;SDS011;60237;52.338;21.228;2022-08-19T07:39:03;46.20;;;9.20;;
52067;SDS011;60237;52.338;21.228;2022-08-19T07:41:30;46.88;;;9.88;;
52067;SDS011;60237;52.338;21.228;2022-08-19T07:43:58;27.05;;;6.82;;
52067;SDS011;60237;52.338;21.228;2022-08-19T07:46:28;30.23;;;8.07;;
52067;SDS011;60237;52.338;21.228;2022-08-19T07:48:57;38.85;;;8.35;;
52067;SDS011;60237;52.338;21.228;2022-08-19T07:51:23;44.55;;;8.35;;
52067;SDS011;60237;52.338;21.228;2022-08-19T07:54:02;61.78;;;11.38;;
52067;SDS011;60237;52.338;21.228;2022-08-19T07:56:28;84.78;;;12.45;;
52067;SDS011;60237;52.338;21.228;2022-08-19T07:58:55;18.52;;;7.70;;
52067;SDS011;60237;52.338;21.228;2022-08-19T08:01:26;44.70;;;9.25;;
52067;SDS011;60237;52.338;21.228;2022-08-19T08:03:54;34.63;;;8.52;;
52067;SDS011;60237;52.338;21.228;2022-08-19T08:06:40;34.50;;;8.63;;
52067;SDS011;60237;52.338;21.228;2022-08-19T08:09:27;31.15;;;8.20;;
52067;SDS011;60237;52.338;21.228;2022-08-19T08:11:55;52.90;;;9.60;;
52067;SDS011;60237;52.338;21.228;2022-08-19T08:14:31;203.48;;;20.08;;
52067;SDS011;60237;52.338;21.228;2022-08-19T08:17:00;151.07;;;17.58;;
52067;SDS011;60237;52.338;21.228;2022-08-19T08:19:27;52.17;;;9.57;;
52067;SDS011;60237;52.338;21.228;2022-08-19T08:21:57;53.42;;;9.43;;
52067;SDS011;60237;52.338;21.228;2022-08-19T08:24:24;35.50;;;7.72;;
52067;SDS011;60237;52.338;21.228;2022-08-19T08:26:54;34.15;;;8.52;;
52067;SDS011;60237;52.338;21.228;2022-08-19T08:29:23;27.77;;;7.93;;
52067;SDS011;60237;52.338;21.228;2022-08-19T08:31:51;52.97;;;11.18;;
52067;SDS011;60237;52.338;21.228;2022-08-19T08:34:25;62.90;;;10.60;;
52067;SDS011;60237;52.338;21.228;2022-08-19T08:36:51;22.90;;;7.63;;
52067;SDS011;60237;52.338;21.228;2022-08-19T08:39:19;47.45;;;9.23;;
52067;SDS011;60237;52.338;21.228;2022-08-19T08:44:47;41.83;;;9.05;;
52067;SDS011;60237;52.338;21.228;2022-08-19T08:47:09;24.40;;;8.10;;
52067;SDS011;60237;52.338;21.228;2022-08-19T08:52:13;68.43;;;10.75;;
52067;SDS011;60237;52.338;21.228;2022-08-19T08:54:46;108.95;;;12.70;;
52067;SDS011;60237;52.338;21.228;2022-08-19T08:57:56;53.53;;;10.35;;
52067;SDS011;60237;52.338;21.228;2022-08-19T09:00:19;37.03;;;8.90;;
52067;SDS011;60237;52.338;21.228;2022-08-19T09:02:47;74.70;;;11.05;;
52067;SDS011;60237;52.338;21.228;2022-08-19T09:05:16;26.13;;;8.48;;
52067;SDS011;60237;52.338;21.228;2022-08-19T09:10:32;145.73;;;16.23;;
52067;SDS011;60237;52.338;21.228;2022-08-19T09:16:10;42.45;;;10.38;;
52067;SDS011;60237;52.338;21.228;2022-08-19T09:18:39;46.10;;;9.20;;
52067;SDS011;60237;52.338;21.228;2022-08-19T09:21:06;24.95;;;7.75;;
52067;SDS011;60237;52.338;21.228;2022-08-19T09:23:35;42.38;;;9.32;;
52067;SDS011;60237;52.338;21.228;2022-08-19T09:26:06;35.03;;;8.82;;
52067;SDS011;60237;52.338;21.228;2022-08-19T09:28:35;28.83;;;7.93;;
52067;SDS011;60237;52.338;21.228;2022-08-19T09:31:04;57.85;;;10.48;;
52067;SDS011;60237;52.338;21.228;2022-08-19T09:33:30;25.10;;;7.22;;
52067;SDS011;60237;52.338;21.228;2022-08-19T09:36:04;26.88;;;7.57;;
52067;SDS011;60237;52.338;21.228;2022-08-19T09:38:34;39.67;;;8.80;;
52067;SDS011;60237;52.338;21.228;2022-08-19T09:41:10;29.55;;;8.35;;
52067;SDS011;60237;52.338;21.228;2022-08-19T09:43:40;33.30;;;8.63;;
52067;SDS011;60237;52.338;21.228;2022-08-19T09:46:13;28.83;;;7.80;;
52067;SDS011;60237;52.338;21.228;2022-08-19T09:48:43;52.22;;;9.32;;
52067;SDS011;60237;52.338;21.228;2022-08-19T09:51:11;16.85;;;6.95;;
52067;SDS011;60237;52.338;21.228;2022-08-19T09:53:41;24.50;;;7.45;;
52067;SDS011;60237;52.338;21.228;2022-08-19T09:56:08;35.05;;;7.55;;
52067;SDS011;60237;52.338;21.228;2022-08-19T09:58:35;143.27;;;14.35;;
52067;SDS011;60237;52.338;21.228;2022-08-19T10:01:02;28.20;;;7.20;;
52067;SDS011;60237;52.338;21.228;2022-08-19T10:03:30;46.03;;;9.38;;
52067;SDS011;60237;52.338;21.228;2022-08-19T10:05:58;31.13;;;7.47;;
52067;SDS011;60237;52.338;21.228;2022-08-19T10:08:26;24.02;;;7.00;;
52067;SDS011;60237;52.338;21.228;2022-08-19T10:10:53;85.97;;;12.98;;
52067;SDS011;60237;52.338;21.228;2022-08-19T10:13:22;59.55;;;9.15;;
52067;SDS011;60237;52.338;21.228;2022-08-19T10:15:55;66.55;;;10.18;;
52067;SDS011;60237;52.338;21.228;2022-08-19T10:18:23;26.60;;;6.95;;
52067;SDS011;60237;52.338;21.228;2022-08-19T10:20:51;20.77;;;6.78;;
52067;SDS011;60237;52.338;21.228;2022-08-19T10:23:20;38.25;;;8.35;;
52067;SDS011;60237;52.338;21.228;2022-08-19T10:25:47;17.45;;;6.07;;
52067;SDS011;60237;52.338;21.228;2022-08-19T10:28:14;46.20;;;9.35;;
52067;SDS011;60237;52.338;21.228;2022-08-19T10:30:40;37.15;;;7.50;;
52067;SDS011;60237;52.338;21.228;2022-08-19T10:33:08;17.02;;;6.55;;
52067;SDS011;60237;52.338;21.228;2022-08-19T10:35:36;29.08;;;7.18;;
52067;SDS011;60237;52.338;21.228;2022-08-19T10:38:08;53.35;;;9.32;;
52067;SDS011;60237;52.338;21.228;2022-08-19T10:40:35;57.58;;;9.25;;
52067;SDS011;60237;52.338;21.228;2022-08-19T10:43:02;118.45;;;12.20;;
52067;SDS011;60237;52.338;21.228;2022-08-19T10:45:28;53.13;;;8.68;;
52067;SDS011;60237;52.338;21.228;2022-08-19T10:47:55;23.08;;;6.57;;
52067;SDS011;60237;52.338;21.228;2022-08-19T10:50:22;31.83;;;7.03;;
52067;SDS011;60237;52.338;21.228;2022-08-19T10:53:08;37.17;;;7.63;;
52067;SDS011;60237;52.338;21.228;2022-08-19T10:55:37;35.33;;;8.15;;
52067;SDS011;60237;52.338;21.228;2022-08-19T10:58:22;29.33;;;7.70;;
52067;SDS011;60237;52.338;21.228;2022-08-19T11:00:53;31.25;;;6.90;;
52067;SDS011;60237;52.338;21.228;2022-08-19T11:03:20;32.60;;;7.97;;
52067;SDS011;60237;52.338;21.228;2022-08-19T11:05:51;30.75;;;8.35;;
52067;SDS011;60237;52.338;21.228;2022-08-19T11:08:22;96.95;;;11.13;;
52067;SDS011;60237;52.338;21.228;2022-08-19T11:10:51;57.13;;;9.13;;
52067;SDS011;60237;52.338;21.228;2022-08-19T11:13:20;40.70;;;7.60;;
52067;SDS011;60237;52.338;21.228;2022-08-19T11:15:46;26.90;;;7.40;;
52067;SDS011;60237;52.338;21.228;2022-08-19T11:18:13;35.92;;;6.88;;
52067;SDS011;60237;52.338;21.228;2022-08-19T11:20:40;27.42;;;6.47;;
52067;SDS011;60237;52.338;21.228;2022-08-19T11:23:06;18.45;;;6.00;;
52067;SDS011;60237;52.338;21.228;2022-08-19T11:25:33;35.03;;;7.95;;
52067;SDS011;60237;52.338;21.228;2022-08-19T11:28:00;21.17;;;6.15;;
52067;SDS011;60237;52.338;21.228;2022-08-19T11:30:27;35.20;;;6.95;;
52067;SDS011;60237;52.338;21.228;2022-08-19T11:32:54;28.25;;;6.25;;
52067;SDS011;60237;52.338;21.228;2022-08-19T11:35:20;32.53;;;6.90;;
52067;SDS011;60237;52.338;21.228;2022-08-19T11:37:49;35.92;;;6.75;;
52067;SDS011;60237;52.338;21.228;2022-08-19T11:40:16;58.10;;;8.25;;
52067;SDS011;60237;52.338;21.228;2022-08-19T11:42:42;19.45;;;6.22;;
52067;SDS011;60237;52.338;21.228;2022-08-19T11:45:22;43.58;;;8.63;;
52067;SDS011;60237;52.338;21.228;2022-08-19T11:47:49;56.63;;;7.35;;
52067;SDS011;60237;52.338;21.228;2022-08-19T11:50:16;23.25;;;5.97;;
52067;SDS011;60237;52.338;21.228;2022-08-19T11:52:43;38.08;;;6.85;;
52067;SDS011;60237;52.338;21.228;2022-08-19T11:55:14;37.38;;;7.25;;
52067;SDS011;60237;52.338;21.228;2022-08-19T11:57:40;25.25;;;5.97;;
52067;SDS011;60237;52.338;21.228;2022-08-19T12:00:08;35.58;;;6.35;;
52067;SDS011;60237;52.338;21.228;2022-08-19T12:02:35;37.75;;;6.30;;
52067;SDS011;60237;52.338;21.228;2022-08-19T12:05:02;78.47;;;9.77;;
52067;SDS011;60237;52.338;21.228;2022-08-19T12:07:32;53.35;;;8.20;;
52067;SDS011;60237;52.338;21.228;2022-08-19T12:09:59;19.70;;;5.47;;
52067;SDS011;60237;52.338;21.228;2022-08-19T12:12:27;40.55;;;7.35;;
52067;SDS011;60237;52.338;21.228;2022-08-19T12:14:54;62.15;;;8.77;;
52067;SDS011;60237;52.338;21.228;2022-08-19T12:17:25;28.67;;;5.90;;
52067;SDS011;60237;52.338;21.228;2022-08-19T12:19:53;27.88;;;6.03;;
52067;SDS011;60237;52.338;21.228;2022-08-19T12:22:19;59.67;;;8.82;;
52067;SDS011;60237;52.338;21.228;2022-08-19T12:24:47;21.52;;;5.97;;
52067;SDS011;60237;52.338;21.228;2022-08-19T12:27:14;27.60;;;6.30;;
52067;SDS011;60237;52.338;21.228;2022-08-19T12:29:57;39.97;;;6.68;;
52067;SDS011;60237;52.338;21.228;2022-08-19T12:32:27;30.83;;;6.10;;
52067;SDS011;60237;52.338;21.228;2022-08-19T12:34:54;38.85;;;7.05;;
52067;SDS011;60237;52.338;21.228;2022-08-19T12:37:20;30.98;;;6.20;;
52067;SDS011;60237;52.338;21.228;2022-08-19T12:39:47;61.45;;;8.40;;
52067;SDS011;60237;52.338;21.228;2022-08-19T12:42:14;133.18;;;11.43;;
52067;SDS011;60237;52.338;21.228;2022-08-19T12:44:41;32.30;;;6.43;;
52067;SDS011;60237;52.338;21.228;2022-08-19T12:47:10;14.30;;;4.40;;
52067;SDS011;60237;52.338;21.228;2022-08-19T12:49:37;40.67;;;6.65;;
52067;SDS011;60237;52.338;21.228;2022-08-19T12:52:21;49.85;;;7.70;;
52067;SDS011;60237;52.338;21.228;2022-08-19T12:54:49;36.38;;;6.88;;
52067;SDS011;60237;52.338;21.228;2022-08-19T12:57:19;39.47;;;6.68;;
52067;SDS011;60237;52.338;21.228;2022-08-19T12:59:46;30.42;;;6.30;;
52067;SDS011;60237;52.338;21.228;2022-08-19T13:02:12;51.75;;;7.53;;
52067;SDS011;60237;52.338;21.228;2022-08-19T13:04:39;42.10;;;8.18;;
52067;SDS011;60237;52.338;21.228;2022-08-19T13:07:07;41.95;;;6.32;;
52067;SDS011;60237;52.338;21.228;2022-08-19T13:09:35;41.53;;;7.25;;
52067;SDS011;60237;52.338;21.228;2022-08-19T13:12:01;36.80;;;7.15;;
52067;SDS011;60237;52.338;21.228;2022-08-19T13:14:29;26.90;;;5.30;;
52067;SDS011;60237;52.338;21.228;2022-08-19T13:16:58;54.08;;;7.95;;
52067;SDS011;60237;52.338;21.228;2022-08-19T13:19:25;26.77;;;5.30;;
52067;SDS011;60237;52.338;21.228;2022-08-19T13:21:52;41.60;;;6.72;;
52067;SDS011;60237;52.338;21.228;2022-08-19T13:26:56;37.72;;;7.30;;
52067;SDS011;60237;52.338;21.228;2022-08-19T13:29:23;29.38;;;5.90;;
52067;SDS011;60237;52.338;21.228;2022-08-19T13:32:08;25.80;;;5.05;;
52067;SDS011;60237;52.338;21.228;2022-08-19T13:34:55;23.77;;;5.43;;
52067;SDS011;60237;52.338;21.228;2022-08-19T13:37:21;63.85;;;7.63;;
52067;SDS011;60237;52.338;21.228;2022-08-19T13:40:12;41.90;;;7.38;;
52067;SDS011;60237;52.338;21.228;2022-08-19T13:42:42;16.38;;;5.28;;
52067;SDS011;60237;52.338;21.228;2022-08-19T13:45:09;24.17;;;5.28;;
52067;SDS011;60237;52.338;21.228;2022-08-19T13:47:36;27.25;;;6.05;;
52067;SDS011;60237;52.338;21.228;2022-08-19T13:50:09;19.88;;;4.85;;
52067;SDS011;60237;52.338;21.228;2022-08-19T13:52:37;49.70;;;7.50;;
52067;SDS011;60237;52.338;21.228;2022-08-19T13:55:04;16.83;;;5.32;;
52067;SDS011;60237;52.338;21.228;2022-08-19T13:57:32;20.23;;;4.93;;
52067;SDS011;60237;52.338;21.228;2022-08-19T13:59:59;49.47;;;7.38;;
52067;SDS011;60237;52.338;21.228;2022-08-19T14:02:25;29.27;;;6.03;;
52067;SDS011;60237;52.338;21.228;2022-08-19T14:04:52;49.67;;;6.32;;
52067;SDS011;60237;52.338;21.228;2022-08-19T14:07:19;36.17;;;6.88;;
52067;SDS011;60237;52.338;21.228;2022-08-19T14:09:46;33.83;;;6.45;;
52067;SDS011;60237;52.338;21.228;2022-08-19T14:12:14;22.40;;;5.05;;
52067;SDS011;60237;52.338;21.228;2022-08-19T14:14:54;32.05;;;5.88;;
52067;SDS011;60237;52.338;21.228;2022-08-19T14:17:20;39.90;;;5.43;;
52067;SDS011;60237;52.338;21.228;2022-08-19T14:19:47;66.75;;;8.27;;
52067;SDS011;60237;52.338;21.228;2022-08-19T14:22:14;46.20;;;7.43;;
52067;SDS011;60237;52.338;21.228;2022-08-19T14:24:47;21.30;;;5.15;;
52067;SDS011;60237;52.338;21.228;2022-08-19T14:27:14;24.38;;;5.53;;
52067;SDS011;60237;52.338;21.228;2022-08-19T14:29:41;54.53;;;7.85;;
52067;SDS011;60237;52.338;21.228;2022-08-19T14:32:07;21.45;;;5.57;;
52067;SDS011;60237;52.338;21.228;2022-08-19T14:34:38;38.53;;;6.40;;
52067;SDS011;60237;52.338;21.228;2022-08-19T14:37:05;32.03;;;6.00;;
52067;SDS011;60237;52.338;21.228;2022-08-19T14:39:32;20.33;;;5.80;;
52067;SDS011;60237;52.338;21.228;2022-08-19T14:41:58;32.67;;;5.90;;
52067;SDS011;60237;52.338;21.228;2022-08-19T14:44:26;45.80;;;7.13;;
52067;SDS011;60237;52.338;21.228;2022-08-19T14:46:52;69.50;;;8.98;;
52067;SDS011;60237;52.338;21.228;2022-08-19T14:49:19;49.72;;;7.13;;
52067;SDS011;60237;52.338;21.228;2022-08-19T14:51:57;29.67;;;6.15;;
52067;SDS011;60237;52.338;21.228;2022-08-19T14:54:23;22.83;;;5.47;;